Time;durP1;ratioP1;P1;durP2;ratioP2;P2;SDS_P1;SDS_P2;PMS_P1;PMS_P2;Temp;Humidity;BMP_temperature;BMP_pressure;BME280_temperature;BME280_humidity;BME280_pressure;Samples;Min_cycle;Max_cycle;Signal;HPM_P1;HPM_P2
2023/06/17 00:00:20;;;;;;;3.28;2.40;;;21.80;72.20;;;;;;4190418;28;20024;-60
2023/06/17 00:02:21;;;;;;;2.93;2.33;;;21.70;72.40;;;;;;4175761;28;20072;-59
2023/06/17 00:04:21;;;;;;;3.03;2.40;;;21.70;72.90;;;;;;4185219;28;20354;-59
2023/06/17 00:06:22;;;;;;;3.60;2.35;;;21.70;72.90;;;;;;4179108;28;20102;-60
2023/06/17 00:08:22;;;;;;;3.67;2.60;;;21.60;73.20;;;;;;4177995;28;20041;-60
2023/06/17 00:10:23;;;;;;;3.05;2.10;;;21.60;73.20;;;;;;4189404;28;20086;-62
2023/06/17 00:12:31;;;;;;;2.50;2.20;;;21.60;73.50;;;;;;4182696;28;20041;-61
2023/06/17 00:14:32;;;;;;;3.28;2.50;;;21.50;72.30;;;;;;4189336;28;20113;-59
2023/06/17 00:16:36;;;;;;;3.97;2.20;;;21.50;72.20;;;;;;4160051;28;20040;-60
2023/06/17 00:18:39;;;;;;;4.28;2.78;;;21.40;72.10;;;;;;4175452;28;20032;-59
2023/06/17 00:20:39;;;;;;;3.88;2.25;;;21.40;72.60;;;;;;4191553;28;20401;-60
2023/06/17 00:22:43;;;;;;;3.08;2.17;;;21.40;72.50;;;;;;4184517;28;20020;-60
2023/06/17 00:24:43;;;;;;;3.88;2.50;;;21.30;72.10;;;;;;4191735;28;20041;-59
2023/06/17 00:26:44;;;;;;;2.75;2.20;;;21.30;73.00;;;;;;4189369;28;20531;-60
2023/06/17 00:28:44;;;;;;;3.22;2.47;;;21.20;72.70;;;;;;4188268;28;20369;-60
2023/06/17 00:30:46;;;;;;;3.65;2.75;;;21.30;72.90;;;;;;4177529;28;20036;-59
2023/06/17 00:32:47;;;;;;;3.90;2.38;;;21.20;73.60;;;;;;4177801;28;20091;-59
2023/06/17 00:34:47;;;;;;;3.58;2.33;;;21.20;72.60;;;;;;4191302;28;20036;-59
2023/06/17 00:36:48;;;;;;;3.13;2.70;;;21.20;74.40;;;;;;4190050;28;20041;-59
2023/06/17 00:38:48;;;;;;;3.85;2.58;;;21.10;73.90;;;;;;4173365;28;20037;-60
2023/06/17 00:40:49;;;;;;;3.85;2.90;;;21.10;73.90;;;;;;4171792;28;20082;-59
2023/06/17 00:42:49;;;;;;;3.40;2.70;;;21.00;74.00;;;;;;4178735;28;20037;-60
2023/06/17 00:44:50;;;;;;;2.72;2.30;;;21.00;73.70;;;;;;4175934;28;20052;-59
2023/06/17 00:46:53;;;;;;;2.95;2.17;;;21.00;73.20;;;;;;4190083;28;20089;-59
2023/06/17 00:48:54;;;;;;;2.85;2.30;;;21.00;73.90;;;;;;4179512;28;20024;-60
2023/06/17 00:51:01;;;;;;;2.45;2.25;;;21.00;73.60;;;;;;4183779;28;20392;-60
2023/06/17 00:53:03;;;;;;;3.10;2.30;;;20.90;73.50;;;;;;4185078;28;20028;-60
2023/06/17 00:55:05;;;;;;;4.40;2.20;;;20.90;73.30;;;;;;4190738;28;20036;-59
2023/06/17 00:57:13;;;;;;;3.95;2.38;;;20.80;73.10;;;;;;4191636;28;20039;-59
2023/06/17 00:59:13;;;;;;;3.05;2.50;;;20.80;74.20;;;;;;4177578;28;20081;-59
2023/06/17 01:01:15;;;;;;;6.70;2.65;;;20.70;74.60;;;;;;4183596;28;20037;-59
2023/06/17 01:03:17;;;;;;;4.22;2.17;;;20.70;74.90;;;;;;4171329;28;20520;-59
2023/06/17 01:05:18;;;;;;;5.90;2.38;;;20.60;75.60;;;;;;4185372;28;20086;-59
2023/06/17 01:07:40;;;;;;;3.92;2.38;;;20.70;74.60;;;;;;4190070;28;20043;-59
2023/06/17 01:09:58;;;;;;;3.20;2.20;;;20.60;74.20;;;;;;4180076;28;20396;-59
2023/06/17 01:11:59;;;;;;;3.55;2.40;;;20.60;73.80;;;;;;4180167;28;20086;-59
2023/06/17 01:14:01;;;;;;;2.38;2.10;;;20.60;74.00;;;;;;4190780;28;20065;-59
2023/06/17 01:16:04;;;;;;;4.65;2.40;;;20.60;74.20;;;;;;4173009;28;20037;-60
2023/06/17 01:18:07;;;;;;;3.22;2.22;;;20.50;74.60;;;;;;4178616;28;20028;-60
2023/06/17 01:20:08;;;;;;;3.45;2.58;;;20.40;74.80;;;;;;4177901;28;20067;-61
2023/06/17 01:22:13;;;;;;;3.92;2.78;;;20.40;75.10;;;;;;4184070;28;20063;-59
2023/06/17 01:24:34;;;;;;;3.75;2.25;;;20.30;75.70;;;;;;4179100;28;20033;-59
2023/06/17 01:26:34;;;;;;;3.97;2.90;;;20.30;75.10;;;;;;4189016;28;20024;-59
2023/06/17 01:28:38;;;;;;;3.20;2.63;;;20.20;76.00;;;;;;4178576;28;20049;-59
2023/06/17 01:30:38;;;;;;;4.13;2.72;;;20.20;76.00;;;;;;4172750;28;20028;-59
2023/06/17 01:32:39;;;;;;;3.28;2.67;;;20.20;75.60;;;;;;4181233;28;20032;-61
2023/06/17 01:35:03;;;;;;;3.17;2.60;;;20.20;75.60;;;;;;4179891;28;20025;-60
2023/06/17 01:37:09;;;;;;;3.00;2.60;;;20.10;76.40;;;;;;4183172;28;20029;-59
2023/06/17 01:39:15;;;;;;;3.05;2.58;;;20.10;78.10;;;;;;4183218;28;20041;-60
2023/06/17 01:41:24;;;;;;;3.25;2.45;;;20.00;78.00;;;;;;4188106;28;20040;-60
2023/06/17 01:43:27;;;;;;;3.50;2.40;;;19.90;78.00;;;;;;4181655;28;20140;-60
2023/06/17 01:45:28;;;;;;;3.78;2.50;;;19.90;78.70;;;;;;4176421;28;20032;-59
2023/06/17 01:47:30;;;;;;;3.83;2.75;;;19.90;78.80;;;;;;4191605;28;20136;-60
2023/06/17 01:49:30;;;;;;;2.95;2.58;;;19.90;79.30;;;;;;4184851;28;20403;-59
2023/06/17 01:51:31;;;;;;;3.55;2.70;;;19.90;79.70;;;;;;4175138;28;20104;-62
2023/06/17 01:53:32;;;;;;;3.28;2.58;;;19.80;79.50;;;;;;4190482;28;20099;-60
2023/06/17 01:55:33;;;;;;;3.38;2.65;;;19.90;79.80;;;;;;4176758;28;20094;-59
2023/06/17 01:57:33;;;;;;;5.20;2.63;;;19.80;79.60;;;;;;4192962;28;20123;-60
2023/06/17 01:59:34;;;;;;;3.33;2.45;;;19.80;80.10;;;;;;4184343;28;20039;-60
2023/06/17 02:01:34;;;;;;;3.95;2.40;;;19.70;79.90;;;;;;4190657;28;20029;-59
2023/06/17 02:03:35;;;;;;;3.65;2.50;;;19.70;78.90;;;;;;4191868;28;20048;-59
2023/06/17 02:05:36;;;;;;;4.68;2.58;;;19.70;78.50;;;;;;4188923;28;20048;-60
2023/06/17 02:07:38;;;;;;;3.42;2.50;;;19.60;78.50;;;;;;4190968;28;20029;-59
2023/06/17 02:09:38;;;;;;;4.53;2.85;;;19.60;78.30;;;;;;4183271;28;20124;-60
2023/06/17 02:11:39;;;;;;;3.58;2.63;;;19.60;78.10;;;;;;4190876;28;20471;-59
2023/06/17 02:13:39;;;;;;;4.60;2.30;;;19.60;79.10;;;;;;4184518;28;20025;-63
2023/06/17 02:15:42;;;;;;;3.25;2.70;;;19.50;80.40;;;;;;4180879;28;20074;-60
2023/06/17 02:17:45;;;;;;;2.45;2.20;;;19.50;80.10;;;;;;4189115;28;20032;-59
2023/06/17 02:19:45;;;;;;;2.90;2.40;;;19.50;80.00;;;;;;4182563;28;20032;-59
2023/06/17 02:21:46;;;;;;;3.10;2.45;;;19.50;80.70;;;;;;4183822;28;20024;-59
2023/06/17 02:23:48;;;;;;;3.33;2.60;;;19.50;79.50;;;;;;4190886;28;20029;-59
2023/06/17 02:25:49;;;;;;;2.92;2.30;;;19.50;78.80;;;;;;4181373;28;20036;-59
2023/06/17 02:27:50;;;;;;;3.47;2.40;;;19.40;78.40;;;;;;4193621;28;20029;-60
2023/06/17 02:29:50;;;;;;;6.05;2.95;;;19.40;78.00;;;;;;4185137;28;20108;-59
2023/06/17 02:31:51;;;;;;;3.80;2.90;;;19.40;77.50;;;;;;4186200;28;20047;-59
2023/06/17 02:33:52;;;;;;;3.72;2.28;;;19.30;78.70;;;;;;4190316;28;20048;-59
2023/06/17 02:35:52;;;;;;;2.78;2.42;;;19.30;78.70;;;;;;4171618;28;20033;-59
2023/06/17 02:37:54;;;;;;;3.83;2.50;;;19.20;78.20;;;;;;4188558;28;20021;-60
2023/06/17 02:39:54;;;;;;;5.72;2.75;;;19.20;77.80;;;;;;4193905;28;20032;-59
2023/06/17 02:41:55;;;;;;;4.00;2.50;;;19.20;77.70;;;;;;4187301;28;20081;-60
2023/06/17 02:43:56;;;;;;;3.05;2.47;;;19.20;77.60;;;;;;4174128;28;20021;-59
2023/06/17 02:45:57;;;;;;;4.78;2.92;;;19.20;77.60;;;;;;4178316;28;20025;-59
2023/06/17 02:47:57;;;;;;;4.93;2.60;;;19.10;78.90;;;;;;4172497;28;20309;-59
2023/06/17 02:49:58;;;;;;;3.17;2.80;;;19.00;78.50;;;;;;4177247;28;20036;-59
2023/06/17 02:51:59;;;;;;;3.88;2.50;;;19.00;78.80;;;;;;4176160;28;20095;-60
2023/06/17 02:54:00;;;;;;;3.50;2.58;;;19.00;78.90;;;;;;4180832;28;20022;-60
2023/06/17 02:56:00;;;;;;;3.83;2.67;;;19.00;78.50;;;;;;4175131;28;20028;-59
2023/06/17 02:58:01;;;;;;;2.58;2.28;;;18.90;78.20;;;;;;4172746;28;20500;-59
2023/06/17 03:00:04;;;;;;;3.08;2.60;;;18.90;78.60;;;;;;4159683;28;20052;-59
2023/06/17 03:02:05;;;;;;;5.13;2.83;;;18.90;78.70;;;;;;4174122;28;20032;-59
2023/06/17 03:04:06;;;;;;;3.47;2.92;;;18.80;79.00;;;;;;4186447;28;20045;-59
2023/06/17 03:06:07;;;;;;;3.05;2.35;;;18.80;79.10;;;;;;4190456;28;20034;-60
2023/06/17 03:08:08;;;;;;;2.72;2.33;;;18.80;79.30;;;;;;4187823;28;20086;-59
2023/06/17 03:10:09;;;;;;;3.65;2.75;;;18.80;79.20;;;;;;4183310;28;20029;-60
2023/06/17 03:12:10;;;;;;;4.18;2.60;;;18.80;79.10;;;;;;4192917;28;20025;-59
2023/06/17 03:14:10;;;;;;;3.45;2.75;;;18.80;79.50;;;;;;4190595;28;20033;-59
2023/06/17 03:16:12;;;;;;;4.72;2.70;;;18.70;79.40;;;;;;4183270;28;20388;-59
2023/06/17 03:18:13;;;;;;;3.22;2.47;;;18.80;79.50;;;;;;4178369;28;20595;-59
2023/06/17 03:20:14;;;;;;;4.53;2.60;;;18.70;79.50;;;;;;4182248;28;20056;-60
2023/06/17 03:22:15;;;;;;;3.95;2.80;;;18.70;79.80;;;;;;4177395;28;20033;-59
2023/06/17 03:24:16;;;;;;;4.72;2.80;;;18.70;80.40;;;;;;4187544;28;20127;-59
2023/06/17 03:26:17;;;;;;;4.30;3.03;;;18.70;80.10;;;;;;4174946;28;20511;-60
2023/06/17 03:28:18;;;;;;;3.00;2.35;;;18.60;81.00;;;;;;4186197;28;20032;-59
2023/06/17 03:30:19;;;;;;;3.47;2.83;;;18.60;81.50;;;;;;4183342;28;20055;-59
2023/06/17 03:32:20;;;;;;;3.58;2.72;;;18.60;82.20;;;;;;4181352;28;20060;-59
2023/06/17 03:34:21;;;;;;;3.83;2.85;;;18.60;82.10;;;;;;4185085;28;20025;-59
2023/06/17 03:36:25;;;;;;;3.15;2.40;;;18.50;81.30;;;;;;4181407;28;20063;-60
2023/06/17 03:38:25;;;;;;;5.40;2.70;;;18.50;81.20;;;;;;4184455;28;20111;-59
2023/06/17 03:40:26;;;;;;;3.33;2.80;;;18.50;81.20;;;;;;4185414;28;20033;-59
2023/06/17 03:42:26;;;;;;;3.22;2.70;;;18.40;81.30;;;;;;4176098;28;20481;-59
2023/06/17 03:44:27;;;;;;;3.17;2.67;;;18.40;82.10;;;;;;4172231;28;20064;-59
2023/06/17 03:46:27;;;;;;;4.65;2.60;;;18.40;81.70;;;;;;4176578;28;20032;-60
2023/06/17 03:48:28;;;;;;;4.75;2.63;;;18.30;81.90;;;;;;4174046;28;20043;-59
2023/06/17 03:50:29;;;;;;;3.20;2.60;;;18.30;82.80;;;;;;4176295;28;20033;-59
2023/06/17 03:52:30;;;;;;;3.70;2.60;;;18.30;82.70;;;;;;4187397;28;20440;-59
2023/06/17 03:54:31;;;;;;;3.58;2.90;;;18.30;82.70;;;;;;4185322;28;20074;-59
2023/06/17 03:56:31;;;;;;;3.63;2.67;;;18.30;82.20;;;;;;4190982;28;20418;-59
2023/06/17 03:58:32;;;;;;;4.53;2.72;;;18.30;82.40;;;;;;4185392;28;20040;-59
2023/06/17 04:00:32;;;;;;;3.97;2.72;;;18.30;82.70;;;;;;4179523;28;20106;-60
2023/06/17 04:02:33;;;;;;;3.58;2.80;;;18.30;82.90;;;;;;4170948;28;20029;-59
2023/06/17 04:04:34;;;;;;;3.83;2.88;;;18.30;83.30;;;;;;4175086;28;20437;-60
2023/06/17 04:06:36;;;;;;;4.10;3.20;;;18.30;84.60;;;;;;4171150;28;20082;-59
2023/06/17 04:08:37;;;;;;;4.20;2.65;;;18.30;84.10;;;;;;4178936;28;20040;-59
2023/06/17 04:10:38;;;;;;;3.90;2.80;;;18.30;84.10;;;;;;4171327;28;20028;-60
2023/06/17 04:12:41;;;;;;;5.85;3.10;;;18.30;84.10;;;;;;4174609;28;20631;-59
2023/06/17 04:14:41;;;;;;;6.65;3.10;;;18.30;84.10;;;;;;4170838;28;20041;-59
2023/06/17 04:16:43;;;;;;;4.38;2.70;;;18.40;84.40;;;;;;4176723;28;20383;-59
2023/06/17 04:18:43;;;;;;;5.22;2.97;;;18.40;84.80;;;;;;4172550;28;20440;-60
2023/06/17 04:20:44;;;;;;;4.50;3.13;;;18.40;84.60;;;;;;4171036;28;20033;-59
2023/06/17 04:22:45;;;;;;;3.30;2.67;;;18.50;84.50;;;;;;4173346;28;20028;-59
2023/06/17 04:24:45;;;;;;;4.00;2.88;;;18.50;84.60;;;;;;4183602;28;20029;-59
2023/06/17 04:26:46;;;;;;;4.78;3.28;;;18.50;85.40;;;;;;4178454;28;20040;-60
2023/06/17 04:28:47;;;;;;;3.47;2.88;;;18.50;85.50;;;;;;4174946;28;20037;-59
2023/06/17 04:30:47;;;;;;;4.63;3.10;;;18.50;85.30;;;;;;4172188;28;20071;-59
2023/06/17 04:32:50;;;;;;;3.22;2.90;;;18.50;85.20;;;;;;4183851;28;20409;-59
2023/06/17 04:34:50;;;;;;;4.22;3.45;;;18.60;85.30;;;;;;4183907;28;20071;-59
2023/06/17 04:36:57;;;;;;;3.58;3.22;;;18.60;85.70;;;;;;4192179;28;20024;-59
2023/06/17 04:38:58;;;;;;;3.78;3.03;;;18.60;85.80;;;;;;4172459;28;20488;-60
2023/06/17 04:40:59;;;;;;;3.75;3.35;;;18.60;85.70;;;;;;4179338;28;20035;-59
2023/06/17 04:43:00;;;;;;;4.53;3.28;;;18.60;86.10;;;;;;4192489;28;20051;-59
2023/06/17 04:45:01;;;;;;;4.85;3.60;;;18.60;86.30;;;;;;4182757;28;20037;-59
2023/06/17 04:47:02;;;;;;;5.75;3.67;;;18.70;88.00;;;;;;4180040;28;20036;-59
2023/06/17 04:49:02;;;;;;;4.57;3.50;;;18.70;88.30;;;;;;4177316;28;20496;-59
2023/06/17 04:51:03;;;;;;;4.35;3.30;;;18.70;87.50;;;;;;4180390;28;20083;-59
2023/06/17 04:53:04;;;;;;;4.63;3.22;;;18.70;87.80;;;;;;4183937;28;20040;-59
2023/06/17 04:55:05;;;;;;;6.07;3.70;;;18.80;87.70;;;;;;4181379;28;20025;-61
2023/06/17 04:57:06;;;;;;;4.60;3.38;;;18.80;88.10;;;;;;4192130;28;20037;-60
2023/06/17 04:59:07;;;;;;;4.10;3.10;;;18.80;88.50;;;;;;4186809;28;20103;-59
2023/06/17 05:01:10;;;;;;;5.38;3.58;;;18.80;88.60;;;;;;4174032;28;20033;-60
2023/06/17 05:03:11;;;;;;;4.20;2.92;;;18.80;88.50;;;;;;4190629;28;20579;-60
2023/06/17 05:05:11;;;;;;;6.15;3.78;;;18.90;89.50;;;;;;4168169;28;20088;-62
2023/06/17 05:07:12;;;;;;;4.13;3.42;;;18.90;89.00;;;;;;4185968;28;20043;-59
2023/06/17 05:09:12;;;;;;;4.78;4.03;;;18.90;89.30;;;;;;4184342;28;20442;-59
2023/06/17 05:11:13;;;;;;;4.18;3.40;;;18.90;90.00;;;;;;4179562;28;20041;-60
2023/06/17 05:13:13;;;;;;;4.55;3.85;;;19.00;90.00;;;;;;4192009;28;20067;-62
2023/06/17 05:15:14;;;;;;;4.55;3.42;;;19.00;90.40;;;;;;4177239;28;20128;-60
2023/06/17 05:17:15;;;;;;;4.22;3.63;;;19.10;90.20;;;;;;4173809;28;20033;-59
2023/06/17 05:19:15;;;;;;;6.22;3.53;;;19.10;90.40;;;;;;4173589;28;20087;-59
2023/06/17 05:21:21;;;;;;;4.70;3.80;;;19.10;90.30;;;;;;4180869;28;20039;-59
2023/06/17 05:23:22;;;;;;;5.95;4.00;;;19.20;90.80;;;;;;4170698;28;20064;-60
2023/06/17 05:25:22;;;;;;;4.60;3.78;;;19.20;90.40;;;;;;4179362;28;20036;-59
2023/06/17 05:27:23;;;;;;;4.30;3.90;;;19.20;90.30;;;;;;4189760;28;20064;-59
2023/06/17 05:29:24;;;;;;;5.38;4.25;;;19.30;90.30;;;;;;4188101;28;20040;-59
2023/06/17 05:31:25;;;;;;;5.18;4.30;;;19.30;89.80;;;;;;4171652;28;20043;-59
2023/06/17 05:33:25;;;;;;;4.68;3.80;;;19.30;90.00;;;;;;4188533;28;20392;-59
2023/06/17 05:35:27;;;;;;;5.15;4.20;;;19.40;90.30;;;;;;4172057;28;20201;-59
2023/06/17 05:37:28;;;;;;;7.90;4.10;;;19.40;90.00;;;;;;4170321;28;20026;-60
2023/06/17 05:39:28;;;;;;;6.68;4.93;;;19.50;89.70;;;;;;4169025;28;20056;-60
2023/06/17 05:41:29;;;;;;;8.73;4.80;;;19.50;89.40;;;;;;4176533;28;20037;-60
2023/06/17 05:43:29;;;;;;;5.60;4.75;;;19.60;88.90;;;;;;4178473;28;20459;-59
2023/06/17 05:45:30;;;;;;;7.82;5.25;;;19.70;89.00;;;;;;4181172;28;20094;-59
2023/06/17 05:47:30;;;;;;;8.23;5.43;;;19.80;89.80;;;;;;4167724;28;20396;-59
2023/06/17 05:49:31;;;;;;;5.50;4.45;;;20.00;90.10;;;;;;4190171;28;20033;-59
2023/06/17 05:51:32;;;;;;;6.10;5.25;;;20.40;90.00;;;;;;4183771;28;20032;-60
2023/06/17 05:53:32;;;;;;;7.22;4.30;;;20.80;89.20;;;;;;4183743;28;20044;-60
2023/06/17 05:55:33;;;;;;;7.47;4.93;;;21.20;85.90;;;;;;4182332;28;20462;-59
2023/06/17 05:57:33;;;;;;;5.82;4.45;;;21.70;82.60;;;;;;4169808;28;20426;-60
2023/06/17 05:59:34;;;;;;;5.47;4.47;;;22.10;82.40;;;;;;4178958;28;20124;-60
2023/06/17 06:01:35;;;;;;;5.40;4.78;;;22.50;78.20;;;;;;4174673;28;20502;-60
2023/06/17 06:03:35;;;;;;;5.82;4.13;;;22.70;76.90;;;;;;4179176;28;20486;-60
2023/06/17 06:05:36;;;;;;;5.90;3.80;;;23.10;78.40;;;;;;4174648;28;20504;-62
2023/06/17 06:07:37;;;;;;;6.53;3.95;;;23.50;76.10;;;;;;4177813;28;20488;-62
2023/06/17 06:09:38;;;;;;;4.72;3.95;;;23.90;76.00;;;;;;4174793;28;20446;-62
2023/06/17 06:11:39;;;;;;;5.32;3.95;;;24.30;75.00;;;;;;4174125;28;20037;-62
2023/06/17 06:13:40;;;;;;;4.88;4.13;;;24.60;73.30;;;;;;4173940;28;20091;-63
2023/06/17 06:15:41;;;;;;;4.25;3.53;;;24.90;73.10;;;;;;4170827;28;20043;-63
2023/06/17 06:17:41;;;;;;;3.92;3.35;;;25.20;71.10;;;;;;4177580;28;20119;-63
2023/06/17 06:19:42;;;;;;;6.15;4.20;;;25.60;69.80;;;;;;4178886;28;20040;-62
2023/06/17 06:21:42;;;;;;;3.88;3.47;;;25.80;68.10;;;;;;4176596;28;20058;-62
2023/06/17 06:23:43;;;;;;;5.40;3.90;;;26.10;66.60;;;;;;4173624;28;20104;-64
2023/06/17 06:25:44;;;;;;;4.20;3.22;;;26.30;67.40;;;;;;4174543;28;20388;-62
2023/06/17 06:27:44;;;;;;;4.00;3.60;;;26.50;66.10;;;;;;4174861;28;20032;-63
2023/06/17 06:29:45;;;;;;;5.85;4.18;;;26.60;63.70;;;;;;4172070;28;20041;-64
2023/06/17 06:31:46;;;;;;;3.42;3.05;;;26.50;64.60;;;;;;4171547;28;20127;-63
2023/06/17 06:33:47;;;;;;;4.55;3.28;;;26.70;65.30;;;;;;4175108;28;20033;-63
2023/06/17 06:35:47;;;;;;;4.30;2.78;;;26.80;66.60;;;;;;4175622;28;20116;-63
2023/06/17 06:37:48;;;;;;;3.67;3.10;;;26.90;65.10;;;;;;4170417;28;20094;-63
2023/06/17 06:39:49;;;;;;;3.55;3.10;;;27.00;64.70;;;;;;4176154;28;20486;-63
2023/06/17 06:41:49;;;;;;;3.42;3.13;;;27.10;62.90;;;;;;4168728;28;20118;-64
2023/06/17 06:43:50;;;;;;;11.68;3.13;;;27.20;62.60;;;;;;4174136;28;20045;-64
2023/06/17 06:45:51;;;;;;;3.80;3.00;;;27.10;59.80;;;;;;4173597;28;20029;-63
2023/06/17 06:47:51;;;;;;;4.30;3.25;;;27.20;59.20;;;;;;4174934;28;20037;-63
2023/06/17 06:49:52;;;;;;;5.22;3.22;;;27.20;61.90;;;;;;4172104;28;20041;-63
2023/06/17 06:51:52;;;;;;;3.65;2.72;;;27.30;60.30;;;;;;4175845;28;20032;-64
2023/06/17 06:53:53;;;;;;;4.05;3.10;;;27.30;60.30;;;;;;4176071;28;20132;-64
2023/06/17 06:55:54;;;;;;;3.67;2.88;;;27.40;60.00;;;;;;4174720;28;20028;-64
2023/06/17 06:57:55;;;;;;;4.15;3.13;;;27.40;59.80;;;;;;4171896;28;20029;-64
2023/06/17 06:59:55;;;;;;;4.40;2.88;;;27.30;57.90;;;;;;4175339;28;20036;-63
2023/06/17 07:01:56;;;;;;;3.30;3.00;;;27.30;58.00;;;;;;4174847;28;20061;-64
2023/06/17 07:03:57;;;;;;;2.92;2.50;;;27.20;59.00;;;;;;4173928;28;20128;-64
2023/06/17 07:05:57;;;;;;;3.53;2.92;;;27.20;57.90;;;;;;4177565;28;20040;-63
2023/06/17 07:08:00;;;;;;;8.52;2.95;;;27.20;58.70;;;;;;4173912;28;20029;-64
2023/06/17 07:10:00;;;;;;;3.65;3.13;;;27.20;59.70;;;;;;4173359;28;20036;-63
2023/06/17 07:12:01;;;;;;;3.47;2.83;;;27.20;59.10;;;;;;4175642;28;20123;-64
2023/06/17 07:14:01;;;;;;;2.97;2.60;;;27.20;57.90;;;;;;4170593;28;20044;-64
2023/06/17 07:16:02;;;;;;;6.85;2.97;;;27.20;60.00;;;;;;4171920;28;20044;-64
2023/06/17 07:18:03;;;;;;;4.10;3.20;;;27.20;58.80;;;;;;4171633;28;20033;-63
2023/06/17 07:20:05;;;;;;;4.55;3.10;;;27.20;61.10;;;;;;4169802;28;20025;-64
2023/06/17 07:22:07;;;;;;;3.70;2.92;;;27.30;61.10;;;;;;4170735;28;20995;-64
2023/06/17 07:24:08;;;;;;;2.72;2.40;;;27.30;61.40;;;;;;4169457;28;20021;-63
2023/06/17 07:26:09;;;;;;;3.63;2.92;;;27.30;59.90;;;;;;4168869;28;20112;-63
2023/06/17 07:28:09;;;;;;;4.10;2.88;;;27.30;58.60;;;;;;4171056;28;20108;-64
2023/06/17 07:30:11;;;;;;;4.20;3.13;;;27.40;57.90;;;;;;4170626;28;20044;-64
2023/06/17 07:32:11;;;;;;;4.30;3.20;;;27.40;57.90;;;;;;4170726;28;20499;-64
2023/06/17 07:34:12;;;;;;;3.75;3.22;;;27.40;57.50;;;;;;4174712;28;20025;-64
2023/06/17 07:36:12;;;;;;;3.67;2.90;;;27.40;59.40;;;;;;4178422;28;20567;-64
2023/06/17 07:38:13;;;;;;;4.00;2.88;;;27.40;57.50;;;;;;4168923;28;20060;-66
2023/06/17 07:40:13;;;;;;;3.17;2.88;;;27.40;57.80;;;;;;4172487;28;20033;-63
2023/06/17 07:42:16;;;;;;;5.70;2.85;;;27.30;57.50;;;;;;4173575;28;20419;-65
2023/06/17 07:44:17;;;;;;;3.83;2.85;;;27.30;58.30;;;;;;4172315;28;20034;-64
2023/06/17 07:46:18;;;;;;;3.30;2.60;;;27.30;57.80;;;;;;4172014;28;20034;-64
2023/06/17 07:48:19;;;;;;;3.55;2.75;;;27.30;59.40;;;;;;4172377;28;20036;-64
2023/06/17 07:50:19;;;;;;;4.57;2.97;;;27.30;57.60;;;;;;4173960;28;20033;-64
2023/06/17 07:52:20;;;;;;;2.95;2.65;;;27.40;58.80;;;;;;4178192;28;20158;-64
2023/06/17 07:54:20;;;;;;;3.05;2.63;;;27.40;58.00;;;;;;4178963;28;20042;-64
2023/06/17 07:56:21;;;;;;;3.83;2.75;;;27.40;59.20;;;;;;4175173;28;20028;-64
2023/06/17 07:58:22;;;;;;;3.13;2.40;;;27.50;58.60;;;;;;4173538;28;20033;-63
2023/06/17 08:00:22;;;;;;;3.95;2.90;;;27.50;60.00;;;;;;4174958;28;20061;-64
2023/06/17 08:02:23;;;;;;;4.75;3.00;;;27.60;59.10;;;;;;4173849;28;20543;-64
2023/06/17 08:04:24;;;;;;;2.83;2.55;;;27.60;57.70;;;;;;4171732;28;20041;-64
2023/06/17 08:06:25;;;;;;;3.28;2.70;;;27.60;57.30;;;;;;4176824;28;20029;-64
2023/06/17 08:08:25;;;;;;;3.47;2.80;;;27.70;57.80;;;;;;4168787;28;20460;-64
2023/06/17 08:10:26;;;;;;;3.20;2.40;;;27.60;57.00;;;;;;4171865;28;20033;-63
2023/06/17 08:12:27;;;;;;;2.72;2.42;;;27.60;60.00;;;;;;4169772;28;20071;-63
2023/06/17 08:14:27;;;;;;;3.88;2.50;;;27.70;57.80;;;;;;4169522;28;20034;-63
2023/06/17 08:16:28;;;;;;;3.30;2.58;;;27.70;58.70;;;;;;4173279;28;20065;-64
2023/06/17 08:18:28;;;;;;;3.78;2.55;;;27.70;57.80;;;;;;4176359;28;20041;-64
2023/06/17 08:20:29;;;;;;;3.45;2.65;;;27.70;57.00;;;;;;4173693;28;20035;-64
2023/06/17 08:22:30;;;;;;;3.53;2.50;;;27.70;57.10;;;;;;4175926;28;20036;-63
2023/06/17 08:24:31;;;;;;;3.67;2.50;;;27.60;57.10;;;;;;4171334;28;20064;-64
2023/06/17 08:26:31;;;;;;;3.40;2.50;;;27.60;56.70;;;;;;4171015;28;20424;-64
2023/06/17 08:28:32;;;;;;;3.05;2.50;;;27.50;55.90;;;;;;4169983;28;20028;-64
2023/06/17 08:30:33;;;;;;;2.38;2.05;;;27.60;58.60;;;;;;4169180;28;20033;-64
2023/06/17 08:32:33;;;;;;;3.03;2.40;;;27.60;59.20;;;;;;4170084;28;20036;-63
2023/06/17 08:34:35;;;;;;;2.75;2.20;;;27.60;57.60;;;;;;4169763;28;20040;-63
2023/06/17 08:36:38;;;;;;;4.05;2.60;;;27.70;58.20;;;;;;4170181;28;20102;-63
2023/06/17 08:38:39;;;;;;;6.50;2.45;;;27.80;57.50;;;;;;4170518;28;20074;-64
2023/06/17 08:40:44;;;;;;;5.40;3.00;;;27.80;56.30;;;;;;4170574;28;20484;-63
2023/06/17 08:42:46;;;;;;;3.10;2.70;;;27.80;56.90;;;;;;4174316;28;20021;-63
2023/06/17 08:44:48;;;;;;;4.00;2.05;;;27.80;57.00;;;;;;4171986;28;20092;-66
2023/06/17 08:46:51;;;;;;;;;;;27.80;55.30;;;;;;4170020;28;20113;-64
2023/06/17 08:48:52;;;;;;;5.22;2.55;;;27.80;56.10;;;;;;4169289;28;19913;-64
2023/06/17 08:50:54;;;;;;;5.30;2.47;;;27.90;55.00;;;;;;4174179;28;20029;-64
2023/06/17 08:52:55;;;;;;;3.00;2.65;;;27.90;55.70;;;;;;4174865;28;20099;-64
2023/06/17 08:54:56;;;;;;;2.78;2.55;;;27.90;58.10;;;;;;4176703;28;20560;-64
2023/06/17 08:56:56;;;;;;;2.90;2.50;;;27.90;56.00;;;;;;4180554;28;20033;-64
2023/06/17 08:58:57;;;;;;;4.32;2.80;;;28.00;56.30;;;;;;4194603;28;20395;-64
2023/06/17 09:00:58;;;;;;;3.38;2.30;;;28.00;57.60;;;;;;4174226;28;20033;-64
2023/06/17 09:03:00;;;;;;;3.17;2.60;;;28.00;55.60;;;;;;4174025;28;20057;-64
2023/06/17 09:05:01;;;;;;;4.15;2.28;;;28.10;56.60;;;;;;4173419;28;20435;-64
2023/06/17 09:07:02;;;;;;;3.47;2.80;;;28.10;56.40;;;;;;4175472;28;20507;-64
2023/06/17 09:09:03;;;;;;;4.30;2.55;;;28.10;55.90;;;;;;4177226;28;20040;-64
2023/06/17 09:11:05;;;;;;;3.88;2.88;;;28.10;55.30;;;;;;4172962;28;20408;-63
2023/06/17 09:13:08;;;;;;;3.28;2.40;;;28.20;57.10;;;;;;4163577;28;20202;-64
2023/06/17 09:15:15;;;;;;;3.03;2.42;;;28.20;56.00;;;;;;4168257;28;20087;-65
2023/06/17 09:17:31;;;;;;;3.90;2.80;;;28.30;58.00;;;;;;4161798;28;20041;-64
2023/06/17 09:19:31;;;;;;;5.40;2.67;;;28.30;55.30;;;;;;4169704;28;20127;-64
2023/06/17 09:21:32;;;;;;;3.08;2.30;;;28.50;55.60;;;;;;4173233;28;20041;-64
2023/06/17 09:23:33;;;;;;;3.47;2.50;;;28.50;55.20;;;;;;4170978;28;20034;-63
2023/06/17 09:25:35;;;;;;;4.10;2.67;;;28.60;56.50;;;;;;4172063;28;20479;-64
2023/06/17 09:27:36;;;;;;;6.47;2.92;;;28.70;57.00;;;;;;4173987;28;20032;-64
2023/06/17 09:29:38;;;;;;;4.90;2.97;;;28.70;56.60;;;;;;4177688;28;20094;-64
2023/06/17 09:31:49;;;;;;;5.72;3.03;;;28.80;57.20;;;;;;4171993;28;20133;-63
2023/06/17 09:33:50;;;;;;;3.80;2.50;;;28.90;55.80;;;;;;4160860;28;20108;-65
2023/06/17 09:36:03;;;;;;;3.78;2.42;;;28.90;54.40;;;;;;4171849;28;20399;-65
2023/06/17 09:38:04;;;;;;;3.08;2.38;;;29.00;55.20;;;;;;4175438;28;20395;-64
2023/06/17 09:40:06;;;;;;;5.28;2.75;;;29.00;54.70;;;;;;4176452;28;20033;-65
2023/06/17 09:42:08;;;;;;;6.80;3.17;;;29.00;57.10;;;;;;4176540;28;20040;-64
2023/06/17 09:44:10;;;;;;;4.75;3.22;;;29.10;56.20;;;;;;4177585;28;20468;-64
2023/06/17 09:46:11;;;;;;;3.77;2.90;;;29.10;55.60;;;;;;4175201;28;20049;-64
2023/06/17 09:48:17;;;;;;;4.90;3.00;;;29.10;55.70;;;;;;4184239;28;20033;-64
2023/06/17 09:50:18;;;;;;;5.63;3.25;;;29.10;55.60;;;;;;4188796;28;20029;-68
2023/06/17 09:52:20;;;;;;;19.88;3.38;;;29.20;56.40;;;;;;4166117;28;20063;-65
2023/06/17 09:54:21;;;;;;;;;;;29.20;55.40;;;;;;4187103;28;20032;-65
2023/06/17 09:56:23;;;;;;;3.05;2.65;;;29.20;56.00;;;;;;4172705;28;19954;-64
2023/06/17 09:58:29;;;;;;;3.65;2.70;;;29.20;55.90;;;;;;4173798;28;20029;-65
2023/06/17 10:00:31;;;;;;;4.10;3.00;;;29.20;53.30;;;;;;4172457;28;20514;-64
2023/06/17 10:02:32;;;;;;;4.43;2.80;;;29.20;54.60;;;;;;4173168;28;20056;-63
2023/06/17 10:04:33;;;;;;;6.25;2.70;;;29.30;57.20;;;;;;4172056;28;20029;-65
2023/06/17 10:06:39;;;;;;;5.78;3.15;;;29.30;55.90;;;;;;4170249;28;20040;-65
2023/06/17 10:08:43;;;;;;;4.18;3.10;;;29.30;57.00;;;;;;4172467;28;20123;-64
2023/06/17 10:10:43;;;;;;;5.20;2.75;;;29.30;54.80;;;;;;4174844;28;20025;-64
2023/06/17 10:12:47;;;;;;;7.00;3.03;;;29.30;56.60;;;;;;4172256;28;20582;-64
2023/06/17 10:14:48;;;;;;;3.15;2.38;;;29.30;56.50;;;;;;4172753;28;20041;-64
2023/06/17 10:16:51;;;;;;;7.38;3.38;;;29.40;55.80;;;;;;4170108;28;20033;-65
2023/06/17 10:18:54;;;;;;;9.82;3.25;;;29.40;56.30;;;;;;4173470;28;20037;-64
2023/06/17 10:20:56;;;;;;;5.03;3.38;;;29.30;55.60;;;;;;4168139;28;20040;-65
2023/06/17 10:22:58;;;;;;;4.60;2.80;;;29.30;57.00;;;;;;4171383;28;20029;-64
2023/06/17 10:24:58;;;;;;;5.47;3.60;;;29.20;57.20;;;;;;4173563;28;20121;-64
2023/06/17 10:27:03;;;;;;;3.95;3.15;;;29.20;55.80;;;;;;4171701;28;20048;-64
2023/06/17 10:29:10;;;;;;;7.30;3.13;;;29.20;54.00;;;;;;4173507;28;20086;-64
2023/06/17 10:31:26;;;;;;;5.43;3.55;;;29.20;56.20;;;;;;4171367;28;20045;-64
2023/06/17 10:33:27;;;;;;;5.28;3.20;;;29.10;53.60;;;;;;4171901;28;20510;-64